Time;durP1;ratioP1;P1;durP2;ratioP2;P2;SDS_P1;SDS_P2;PMS_P1;PMS_P2;Temp;Humidity;BMP_temperature;BMP_pressure;BME280_temperature;BME280_humidity;BME280_pressure;Samples;Min_cycle;Max_cycle;Signal;HPM_P1;HPM_P2
2023/03/03 00:00:33;;;;;;;30.40;16.00;;;0.20;99.90;;;;;;5207191;28;20439;-50
2023/03/03 00:03:07;;;;;;;33.13;15.10;;;0.30;99.90;;;;;;5205413;28;20977;-50
2023/03/03 00:05:41;;;;;;;25.20;14.63;;;0.30;99.90;;;;;;5224332;28;20830;-51
2023/03/03 00:08:12;;;;;;;29.20;15.10;;;0.20;99.90;;;;;;5219845;28;20546;-50
2023/03/03 00:10:44;;;;;;;30.90;14.47;;;0.20;99.90;;;;;;5223515;28;20530;-51
2023/03/03 00:14:08;;;;;;;29.73;14.67;;;0.20;99.90;;;;;;5221569;28;20449;-50
2023/03/03 00:16:26;;;;;;;28.23;15.07;;;0.20;99.90;;;;;;5209690;28;20508;-50
2023/03/03 00:19:00;;;;;;;24.30;13.53;;;0.40;99.90;;;;;;5208446;28;20521;-50
2023/03/03 00:21:32;;;;;;;27.73;14.43;;;0.20;99.90;;;;;;5223361;28;20473;-49
2023/03/03 00:24:13;;;;;;;29.23;14.07;;;0.40;99.90;;;;;;5223955;28;20546;-52
2023/03/03 00:27:11;;;;;;;24.73;13.90;;;0.40;99.90;;;;;;5225409;28;20475;-51
2023/03/03 00:29:55;;;;;;;25.17;14.47;;;0.30;99.90;;;;;;5225167;28;20431;-51
2023/03/03 00:32:57;;;;;;;28.93;15.60;;;0.10;99.90;;;;;;5216576;28;20445;-50
2023/03/03 00:35:34;;;;;;;28.40;15.37;;;0.00;99.90;;;;;;5205613;28;20445;-50
2023/03/03 00:38:19;;;;;;;33.80;15.30;;;-0.20;99.90;;;;;;5225275;28;20445;-51
2023/03/03 00:40:50;;;;;;;31.43;15.97;;;-0.20;99.90;;;;;;5227179;28;20437;-49
2023/03/03 00:43:39;;;;;;;30.87;15.53;;;-0.10;99.90;;;;;;5189168;28;20477;-48
2023/03/03 00:46:48;;;;;;;;;;;;;;;;;;;;;
2023/03/03 00:49:45;;;;;;;33.80;16.97;;;-0.30;99.90;;;;;;5215525;28;20441;-52
2023/03/03 00:52:18;;;;;;;44.90;18.13;;;-0.30;99.90;;;;;;5208074;28;20842;-49
2023/03/03 00:54:55;;;;;;;34.57;17.20;;;-0.30;99.90;;;;;;5230022;28;20450;-49
2023/03/03 00:57:27;;;;;;;34.00;16.67;;;-0.20;99.90;;;;;;5228241;28;20449;-50
2023/03/03 01:00:00;;;;;;;30.20;15.63;;;-0.20;99.90;;;;;;5212927;28;20442;-49
2023/03/03 01:02:37;;;;;;;30.43;16.43;;;-0.20;99.90;;;;;;5228731;28;20512;-50
2023/03/03 01:05:20;;;;;;;28.60;16.40;;;-0.20;99.90;;;;;;5207638;28;20473;-51
2023/03/03 01:08:25;;;;;;;28.90;15.07;;;-0.20;99.90;;;;;;5224863;28;20471;-50
2023/03/03 01:11:11;;;;;;;27.27;15.23;;;-0.10;99.90;;;;;;5221213;28;20483;-49
2023/03/03 01:13:47;;;;;;;28.87;15.67;;;0.00;99.90;;;;;;5195287;28;20455;-50
2023/03/03 01:16:19;;;;;;;30.27;13.70;;;0.10;99.90;;;;;;5209621;28;21009;-49
2023/03/03 01:19:03;;;;;;;29.90;15.37;;;0.20;99.90;;;;;;5221103;28;20746;-52
2023/03/03 01:21:34;;;;;;;30.13;14.70;;;0.30;99.90;;;;;;5224418;28;20479;-51
2023/03/03 01:24:08;;;;;;;28.10;15.43;;;0.30;99.90;;;;;;5205396;28;21490;-50
2023/03/03 01:26:51;;;;;;;26.67;13.53;;;0.30;99.90;;;;;;5232417;28;20956;-52
2023/03/03 01:29:28;;;;;;;42.17;21.57;;;0.30;99.90;;;;;;5227183;28;21181;-52
2023/03/03 01:31:59;;;;;;;25.83;15.17;;;0.30;99.90;;;;;;5212710;28;20786;-50
2023/03/03 01:34:30;;;;;;;34.70;16.60;;;0.40;99.90;;;;;;5221113;28;20857;-50
2023/03/03 01:37:11;;;;;;;33.17;15.77;;;0.30;99.90;;;;;;5230125;28;20440;-51
2023/03/03 01:40:05;;;;;;;34.97;17.50;;;0.40;99.90;;;;;;5221776;28;20857;-50
2023/03/03 01:42:41;;;;;;;30.37;14.87;;;0.30;99.90;;;;;;5206452;28;20434;-50
2023/03/03 01:45:21;;;;;;;35.47;15.60;;;0.30;99.90;;;;;;5226355;28;20456;-52
2023/03/03 01:48:15;;;;;;;36.47;15.43;;;0.30;99.90;;;;;;5217905;28;20853;-52
2023/03/03 01:50:56;;;;;;;28.47;14.93;;;0.40;99.90;;;;;;5206806;28;20953;-51
2023/03/03 01:53:48;;;;;;;28.20;15.40;;;0.40;99.90;;;;;;5218310;28;20493;-50
2023/03/03 01:56:29;;;;;;;37.53;15.97;;;0.30;99.90;;;;;;5226939;28;21869;-52
2023/03/03 01:59:15;;;;;;;32.80;16.67;;;0.30;99.90;;;;;;5218579;28;20753;-51
2023/03/03 02:01:57;;;;;;;29.53;16.47;;;0.30;99.90;;;;;;5205537;28;20438;-50
2023/03/03 02:04:28;;;;;;;29.67;15.97;;;0.40;99.90;;;;;;5209942;28;20867;-50
2023/03/03 02:07:06;;;;;;;32.57;16.53;;;0.30;99.90;;;;;;5225415;28;20494;-53
2023/03/03 02:10:02;;;;;;;35.10;16.87;;;0.30;99.90;;;;;;5173792;28;20440;-51
2023/03/03 02:12:42;;;;;;;30.10;16.30;;;0.30;99.90;;;;;;5201741;28;20951;-51
2023/03/03 02:15:23;;;;;;;36.90;16.17;;;0.30;99.90;;;;;;5206462;28;20772;-49
2023/03/03 02:17:57;;;;;;;30.30;16.13;;;0.40;99.90;;;;;;5226787;28;20436;-52
2023/03/03 02:20:59;;;;;;;26.50;15.93;;;0.50;99.90;;;;;;5203192;28;20445;-51
2023/03/03 02:24:14;;;;;;;25.23;14.80;;;0.40;99.90;;;;;;5220907;28;20449;-50
2023/03/03 02:26:46;;;;;;;25.70;15.03;;;0.40;99.90;;;;;;5142370;28;20516;-51
2023/03/03 02:29:18;;;;;;;33.17;18.23;;;0.50;99.90;;;;;;5126864;28;20545;-50
2023/03/03 02:31:51;;;;;;;25.93;15.60;;;0.40;99.90;;;;;;5170927;28;20530;-51
2023/03/03 02:34:23;;;;;;;30.77;16.67;;;0.50;99.90;;;;;;5225546;28;20453;-51
2023/03/03 02:36:54;;;;;;;38.50;17.83;;;0.50;99.90;;;;;;5207096;28;20471;-51
2023/03/03 02:39:28;;;;;;;34.27;17.53;;;0.60;99.90;;;;;;5222860;28;21138;-51
2023/03/03 02:42:20;;;;;;;31.23;18.33;;;0.40;99.90;;;;;;5208004;28;20440;-52
2023/03/03 02:44:51;;;;;;;35.57;17.73;;;0.40;99.90;;;;;;5216482;28;20535;-50
2023/03/03 02:47:23;;;;;;;33.80;17.00;;;0.40;99.90;;;;;;5208971;28;20803;-52
2023/03/03 02:49:54;;;;;;;28.70;16.83;;;0.40;99.90;;;;;;5206745;28;20937;-51
2023/03/03 02:52:39;;;;;;;30.57;16.07;;;0.40;99.90;;;;;;5208796;28;20436;-51
2023/03/03 02:55:10;;;;;;;34.30;16.20;;;0.40;99.90;;;;;;5210589;28;20433;-51
2023/03/03 02:57:41;;;;;;;27.50;15.80;;;0.40;99.90;;;;;;5220917;28;20434;-52
2023/03/03 03:00:15;;;;;;;27.77;14.60;;;0.40;99.90;;;;;;5200468;28;20442;-51
2023/03/03 03:02:49;;;;;;;27.17;14.57;;;0.30;99.90;;;;;;5215252;28;20494;-50
2023/03/03 03:05:20;;;;;;;25.87;14.77;;;0.40;99.90;;;;;;5207051;28;20851;-50
2023/03/03 03:07:56;;;;;;;29.83;16.47;;;0.40;99.90;;;;;;5200349;28;20442;-51
2023/03/03 03:11:06;;;;;;;;;;;;;;;;;;;;;
2023/03/03 03:13:38;;;;;;;31.23;16.00;;;0.40;99.90;;;;;;5217616;28;21060;-51
2023/03/03 03:16:09;;;;;;;26.37;15.60;;;0.30;99.90;;;;;;5204746;28;20464;-51
2023/03/03 03:18:40;;;;;;;26.43;14.50;;;0.30;99.90;;;;;;5221666;28;20439;-51
2023/03/03 03:21:12;;;;;;;28.57;16.40;;;0.10;99.90;;;;;;5207680;28;21042;-51
2023/03/03 03:23:44;;;;;;;30.93;15.70;;;0.10;99.90;;;;;;5214835;28;21029;-52
2023/03/03 03:26:19;;;;;;;32.07;16.03;;;0.20;99.90;;;;;;5202747;28;20992;-51
2023/03/03 03:28:54;;;;;;;27.60;16.27;;;0.30;99.90;;;;;;5208855;28;21005;-51
2023/03/03 03:31:26;;;;;;;37.40;17.90;;;0.20;99.90;;;;;;5221024;28;20998;-51
2023/03/03 03:33:59;;;;;;;39.83;19.17;;;0.20;99.90;;;;;;5222949;28;20459;-52
2023/03/03 03:36:32;;;;;;;37.60;18.50;;;0.20;99.90;;;;;;5224756;28;20437;-50
2023/03/03 03:39:05;;;;;;;32.43;16.37;;;0.20;99.90;;;;;;5223590;28;20797;-51
2023/03/03 03:41:36;;;;;;;31.47;16.67;;;0.10;99.90;;;;;;5205138;28;20429;-52
2023/03/03 03:44:09;;;;;;;32.27;15.00;;;0.20;99.90;;;;;;5207360;28;20525;-51
2023/03/03 03:46:43;;;;;;;34.60;16.57;;;0.20;99.90;;;;;;5207779;28;20961;-51
2023/03/03 03:49:17;;;;;;;31.93;15.20;;;0.30;99.90;;;;;;5201382;28;20871;-51
2023/03/03 03:51:57;;;;;;;30.67;15.60;;;0.20;99.90;;;;;;5200030;28;20431;-52
2023/03/03 03:54:28;;;;;;;30.73;14.03;;;0.20;99.90;;;;;;5208621;28;20956;-50
2023/03/03 03:56:59;;;;;;;29.03;15.30;;;0.10;99.90;;;;;;5220486;28;20921;-52
2023/03/03 03:59:34;;;;;;;28.37;15.03;;;0.00;99.90;;;;;;5204748;28;20461;-52
2023/03/03 04:02:21;;;;;;;27.97;15.23;;;0.00;99.90;;;;;;5223381;28;20934;-50
2023/03/03 04:04:52;;;;;;;35.53;15.73;;;-0.10;99.90;;;;;;5203351;28;20507;-50
2023/03/03 04:07:24;;;;;;;25.90;14.17;;;0.00;99.90;;;;;;5226246;28;20433;-51
2023/03/03 04:09:58;;;;;;;27.80;16.23;;;0.00;99.90;;;;;;5222350;28;20430;-51
2023/03/03 04:12:34;;;;;;;31.03;16.47;;;-0.10;99.90;;;;;;5222801;28;20433;-52
2023/03/03 04:15:08;;;;;;;29.23;14.10;;;-0.10;99.90;;;;;;5222369;28;20479;-51
2023/03/03 04:17:40;;;;;;;27.07;14.57;;;0.00;99.90;;;;;;5222580;28;20444;-50
2023/03/03 04:20:14;;;;;;;30.40;16.37;;;0.10;99.90;;;;;;5221827;28;20954;-52
2023/03/03 04:22:45;;;;;;;37.10;16.47;;;0.10;99.90;;;;;;5197308;28;20496;-51
2023/03/03 04:25:18;;;;;;;30.50;14.73;;;0.00;99.90;;;;;;5206346;28;20458;-52
2023/03/03 04:27:51;;;;;;;32.07;15.77;;;0.00;99.90;;;;;;5224613;28;20428;-51
2023/03/03 04:30:23;;;;;;;28.33;15.67;;;0.00;99.90;;;;;;5226863;28;20942;-51
2023/03/03 04:36:41;;;;;;;29.50;15.80;;;0.00;99.90;;;;;;5146312;28;20461;-53
2023/03/03 04:39:28;;;;;;;38.70;15.20;;;0.00;99.90;;;;;;5181567;28;21008;-53
2023/03/03 04:42:04;;;;;;;30.13;14.80;;;0.00;99.90;;;;;;5224299;28;20445;-52
2023/03/03 04:44:59;;;;;;;29.60;16.63;;;0.00;99.90;;;;;;5202174;28;20530;-52
2023/03/03 04:47:35;;;;;;;29.40;14.70;;;-0.20;99.90;;;;;;5222881;28;20804;-52
2023/03/03 04:50:13;;;;;;;26.70;13.30;;;-0.20;99.90;;;;;;5209961;28;20456;-52
2023/03/03 04:52:47;;;;;;;24.80;12.23;;;-0.30;99.90;;;;;;5211585;28;20960;-51
2023/03/03 04:55:18;;;;;;;21.80;12.33;;;-0.50;99.90;;;;;;5210627;28;20487;-52
2023/03/03 04:57:52;;;;;;;27.07;14.10;;;-0.40;99.90;;;;;;5209463;28;20467;-53
2023/03/03 05:00:23;;;;;;;23.53;12.93;;;-0.50;99.90;;;;;;5228640;28;21013;-51
2023/03/03 05:02:56;;;;;;;20.03;13.23;;;-0.40;99.90;;;;;;5209943;28;20458;-52
2023/03/03 05:05:27;;;;;;;20.67;12.87;;;-0.40;99.90;;;;;;5228347;28;20474;-51
2023/03/03 05:07:59;;;;;;;26.70;13.73;;;-0.40;99.90;;;;;;5228057;28;20449;-52
2023/03/03 05:10:32;;;;;;;30.83;16.03;;;-0.30;99.90;;;;;;5190237;28;20797;-50
2023/03/03 05:13:04;;;;;;;30.03;14.97;;;-0.30;99.90;;;;;;5221666;28;20593;-50
2023/03/03 05:15:35;;;;;;;24.60;14.33;;;-0.20;99.90;;;;;;5210283;28;20453;-52
2023/03/03 05:18:07;;;;;;;26.63;13.67;;;-0.30;99.90;;;;;;5213934;28;20429;-51
2023/03/03 05:20:41;;;;;;;18.80;11.80;;;-0.40;99.90;;;;;;5207222;28;20855;-51
2023/03/03 05:23:12;;;;;;;20.53;11.90;;;-0.50;99.90;;;;;;5227049;28;20828;-51
2023/03/03 05:25:49;;;;;;;26.37;13.70;;;-0.50;99.90;;;;;;5210969;28;21026;-52
2023/03/03 05:28:23;;;;;;;19.60;11.70;;;-0.60;99.90;;;;;;5211783;28;20448;-52
2023/03/03 05:30:54;;;;;;;18.97;11.50;;;-0.70;99.90;;;;;;5205505;28;20515;-51
2023/03/03 05:33:25;;;;;;;33.23;14.50;;;-0.50;99.90;;;;;;5229452;28;20512;-51
2023/03/03 05:36:12;;;;;;;24.77;14.07;;;-0.40;99.90;;;;;;5212524;28;20436;-51
2023/03/03 05:38:47;;;;;;;30.07;14.90;;;-0.50;99.90;;;;;;5222782;28;20441;-52
2023/03/03 05:41:31;;;;;;;28.83;15.60;;;-0.40;99.90;;;;;;5225123;28;20845;-51
2023/03/03 05:44:02;;;;;;;32.37;15.03;;;-0.30;99.90;;;;;;5221782;28;20925;-52
2023/03/03 05:46:33;;;;;;;35.47;15.30;;;-0.20;99.90;;;;;;5207555;28;20503;-50
2023/03/03 05:52:37;;;;;;;31.10;14.67;;;-0.30;99.90;;;;;;5182799;28;20461;-52
2023/03/03 05:55:09;;;;;;;31.07;13.97;;;-0.30;99.90;;;;;;5205810;28;20442;-53
2023/03/03 05:57:41;;;;;;;28.73;16.17;;;-0.30;99.90;;;;;;5227959;28;20515;-51
2023/03/03 06:00:13;;;;;;;28.63;15.40;;;-0.30;99.90;;;;;;5222373;28;20442;-51
2023/03/03 06:02:57;;;;;;;21.43;12.40;;;-0.40;99.90;;;;;;5205510;28;20510;-51
2023/03/03 06:05:34;;;;;;;23.47;13.10;;;-0.40;99.90;;;;;;5208571;28;20457;-53
2023/03/03 06:08:13;;;;;;;25.70;13.20;;;-0.50;99.90;;;;;;5221770;28;20806;-52
2023/03/03 06:11:05;;;;;;;24.70;13.20;;;-0.40;99.90;;;;;;5216626;28;20462;-54
2023/03/03 06:13:37;;;;;;;22.10;12.70;;;-0.30;99.90;;;;;;5206298;28;20446;-51
2023/03/03 06:16:21;;;;;;;29.23;13.27;;;-0.30;99.90;;;;;;5208777;28;20437;-51
2023/03/03 06:19:01;;;;;;;30.87;13.20;;;-0.30;99.90;;;;;;5222760;28;21232;-52
2023/03/03 06:21:35;;;;;;;24.57;13.07;;;-0.20;99.90;;;;;;5205240;28;20443;-52
2023/03/03 06:24:07;;;;;;;25.77;12.63;;;-0.30;99.90;;;;;;5214684;28;20838;-52
2023/03/03 06:26:38;;;;;;;19.07;11.30;;;-0.20;99.90;;;;;;5199738;28;20457;-52
2023/03/03 06:29:12;;;;;;;21.63;11.07;;;-0.20;99.90;;;;;;5208887;28;20500;-52
2023/03/03 06:31:52;;;;;;;21.60;11.23;;;-0.20;99.90;;;;;;5206748;28;20452;-52
2023/03/03 06:34:28;;;;;;;19.93;10.87;;;-0.30;99.90;;;;;;5208448;28;20488;-52
2023/03/03 06:37:00;;;;;;;21.37;11.17;;;-0.20;99.90;;;;;;5207288;28;20441;-52
2023/03/03 06:39:31;;;;;;;12.73;8.83;;;-0.20;99.90;;;;;;5225973;28;20430;-53
2023/03/03 06:42:15;;;;;;;18.10;10.67;;;-0.10;99.90;;;;;;5224666;28;20469;-51
2023/03/03 06:44:47;;;;;;;16.87;9.63;;;-0.10;99.90;;;;;;5221458;28;20833;-53
2023/03/03 06:47:18;;;;;;;14.20;9.70;;;-0.10;99.90;;;;;;5220379;28;20443;-52
2023/03/03 06:49:49;;;;;;;24.60;11.20;;;-0.20;99.90;;;;;;5204935;28;20446;-54
2023/03/03 06:52:28;;;;;;;17.70;10.50;;;-0.10;99.90;;;;;;5205522;28;20175;-51
2023/03/03 06:55:11;;;;;;;22.03;10.63;;;-0.10;99.90;;;;;;5205158;28;20532;-51
2023/03/03 06:57:42;;;;;;;17.43;10.83;;;-0.20;99.90;;;;;;5207418;28;20992;-52
2023/03/03 07:00:15;;;;;;;15.33;9.60;;;-0.10;99.90;;;;;;5206984;28;20445;-52
2023/03/03 07:02:56;;;;;;;18.50;10.57;;;-0.10;99.90;;;;;;5224409;28;20465;-53
2023/03/03 07:05:31;;;;;;;18.43;11.50;;;-0.10;99.90;;;;;;5203585;28;20472;-54
2023/03/03 07:08:18;;;;;;;18.97;10.47;;;0.00;99.90;;;;;;5200176;28;20446;-54
2023/03/03 07:11:10;;;;;;;20.17;11.77;;;0.00;99.90;;;;;;5205307;28;20469;-52
2023/03/03 07:13:54;;;;;;;21.53;11.70;;;0.00;99.90;;;;;;5224881;28;20458;-52
2023/03/03 07:16:30;;;;;;;21.67;12.17;;;-0.30;99.90;;;;;;5222776;28;20532;-51
2023/03/03 07:19:27;;;;;;;19.43;11.70;;;-0.20;99.90;;;;;;5204414;28;20892;-51
2023/03/03 07:22:17;;;;;;;23.33;11.40;;;-0.10;99.90;;;;;;5222517;28;20526;-53
2023/03/03 07:24:55;;;;;;;32.07;13.13;;;-0.20;99.90;;;;;;5185918;28;20488;-52
2023/03/03 07:27:35;;;;;;;24.30;12.57;;;0.00;99.90;;;;;;5223944;28;20433;-52
2023/03/03 07:30:09;;;;;;;20.83;11.80;;;0.10;99.90;;;;;;5208179;28;20436;-53
2023/03/03 07:32:45;;;;;;;24.57;12.20;;;0.20;99.90;;;;;;5224371;28;20487;-51
2023/03/03 07:35:40;;;;;;;24.53;11.33;;;0.10;99.90;;;;;;5204633;28;20437;-51
2023/03/03 07:38:37;;;;;;;24.20;13.47;;;0.20;99.90;;;;;;5224233;28;20483;-52
2023/03/03 07:41:22;;;;;;;24.57;12.00;;;0.30;99.90;;;;;;5212825;28;20438;-53
2023/03/03 07:44:03;;;;;;;24.90;12.13;;;0.30;99.90;;;;;;5205817;28;20974;-54
2023/03/03 07:46:50;;;;;;;19.57;11.00;;;0.30;99.90;;;;;;5205412;28;20487;-52
2023/03/03 07:49:34;;;;;;;18.97;10.67;;;0.30;99.90;;;;;;5210775;28;20468;-50
2023/03/03 07:52:36;;;;;;;20.97;10.50;;;0.30;99.90;;;;;;5224957;28;20422;-51
2023/03/03 07:55:36;;;;;;;22.27;11.33;;;0.40;99.90;;;;;;5201233;28;20432;-51
2023/03/03 07:58:10;;;;;;;20.70;10.20;;;0.40;99.90;;;;;;5207519;28;20524;-51
2023/03/03 08:01:21;;;;;;;16.83;9.77;;;0.30;99.90;;;;;;5231071;28;20409;-51
2023/03/03 08:04:16;;;;;;;20.93;11.10;;;0.50;99.90;;;;;;5225170;28;20435;-54
2023/03/03 08:06:59;;;;;;;23.63;12.23;;;0.40;99.90;;;;;;5226788;28;20489;-51
2023/03/03 08:09:37;;;;;;;17.20;9.67;;;0.50;99.90;;;;;;5194029;28;20425;-52
2023/03/03 08:12:37;;;;;;;15.30;10.33;;;0.60;99.90;;;;;;5226223;28;20429;-51
2023/03/03 08:15:19;;;;;;;17.97;10.13;;;0.60;99.90;;;;;;5206774;28;20829;-51
2023/03/03 08:17:55;;;;;;;25.00;11.00;;;0.70;99.90;;;;;;5204904;28;20984;-52
2023/03/03 08:20:45;;;;;;;20.87;10.40;;;0.50;99.90;;;;;;5204170;28;20493;-52
2023/03/03 08:23:19;;;;;;;21.47;11.43;;;0.60;99.90;;;;;;5227116;28;20506;-51
2023/03/03 08:25:51;;;;;;;18.97;10.70;;;0.90;99.90;;;;;;5223263;28;20453;-54
2023/03/03 08:28:22;;;;;;;18.07;10.27;;;1.00;99.90;;;;;;5219089;28;20440;-53
2023/03/03 08:30:53;;;;;;;19.07;9.97;;;1.00;99.90;;;;;;5226129;28;20823;-53
2023/03/03 08:33:24;;;;;;;23.33;12.17;;;1.20;99.90;;;;;;5205341;28;20453;-53
2023/03/03 08:35:58;;;;;;;23.53;11.67;;;1.40;99.90;;;;;;5200788;28;21015;-54
2023/03/03 08:38:38;;;;;;;23.43;12.83;;;1.30;99.90;;;;;;5217119;28;20807;-52
2023/03/03 08:41:09;;;;;;;16.47;9.77;;;1.30;99.90;;;;;;5203233;28;20498;-53
2023/03/03 08:43:40;;;;;;;16.07;8.30;;;1.50;99.90;;;;;;5203691;28;20461;-53
2023/03/03 08:46:11;;;;;;;14.77;8.17;;;1.50;99.90;;;;;;5221879;28;20476;-53
2023/03/03 08:48:46;;;;;;;20.30;10.00;;;1.50;99.90;;;;;;5225339;28;20440;-54
2023/03/03 08:51:17;;;;;;;15.00;8.17;;;1.50;99.90;;;;;;5207227;28;20443;-56
2023/03/03 08:53:48;;;;;;;14.27;8.90;;;1.50;99.90;;;;;;5218890;28;20500;-55
2023/03/03 08:56:19;;;;;;;17.07;7.90;;;1.50;99.90;;;;;;5204721;28;20437;-53
2023/03/03 08:58:50;;;;;;;15.17;9.20;;;1.70;99.90;;;;;;5202914;28;20190;-51
2023/03/03 09:01:21;;;;;;;11.83;8.23;;;1.40;99.90;;;;;;5206845;28;20634;-52
2023/03/03 09:03:52;;;;;;;13.47;7.87;;;1.50;99.90;;;;;;5207095;28;21127;-54
2023/03/03 09:06:23;;;;;;;15.73;8.60;;;1.60;99.90;;;;;;5217331;28;20515;-53
2023/03/03 09:08:57;;;;;;;12.50;7.60;;;1.80;99.90;;;;;;5202300;28;20429;-51
2023/03/03 09:11:29;;;;;;;10.83;7.80;;;1.80;99.90;;;;;;5203297;28;20445;-52
2023/03/03 09:14:20;;;;;;;13.23;7.10;;;2.10;99.90;;;;;;5207565;28;20461;-52
2023/03/03 09:16:52;;;;;;;13.30;7.97;;;2.40;99.90;;;;;;5224254;28;20503;-51
2023/03/03 09:19:25;;;;;;;12.87;7.20;;;2.40;99.90;;;;;;5204974;28;20844;-52
2023/03/03 09:22:01;;;;;;;12.80;8.40;;;2.40;99.90;;;;;;5228743;28;20441;-53
2023/03/03 09:24:35;;;;;;;16.27;8.30;;;2.30;99.90;;;;;;5228009;28;20444;-53
2023/03/03 09:27:17;;;;;;;17.03;8.63;;;2.40;99.90;;;;;;5210385;28;20465;-55
2023/03/03 09:29:51;;;;;;;13.70;7.53;;;2.40;99.90;;;;;;5223832;28;20445;-51
2023/03/03 09:32:39;;;;;;;12.30;8.30;;;2.70;99.90;;;;;;5227390;28;20425;-53
2023/03/03 09:35:41;;;;;;;8.73;6.70;;;2.60;99.90;;;;;;5230607;28;20433;-52
2023/03/03 09:38:35;;;;;;;20.47;11.67;;;2.40;99.90;;;;;;5211424;28;20528;-54
2023/03/03 09:41:35;;;;;;;15.77;9.20;;;2.20;99.90;;;;;;5214844;28;20456;-53
2023/03/03 09:44:44;;;;;;;12.87;8.97;;;2.30;99.90;;;;;;5228876;28;20457;-54
2023/03/03 09:47:44;;;;;;;16.67;7.90;;;2.30;99.90;;;;;;5228035;28;20988;-53
2023/03/03 09:50:38;;;;;;;10.77;7.23;;;2.60;99.90;;;;;;5226154;28;20530;-54
2023/03/03 09:53:30;;;;;;;9.80;6.80;;;2.80;99.90;;;;;;5207573;28;20973;-54
2023/03/03 09:56:20;;;;;;;10.73;8.13;;;2.60;99.90;;;;;;5205334;28;20442;-55
2023/03/03 09:59:16;;;;;;;11.13;7.20;;;2.80;99.90;;;;;;5219204;28;20426;-54
2023/03/03 10:02:19;;;;;;;18.20;9.07;;;2.80;99.90;;;;;;5225263;28;20468;-53
2023/03/03 10:05:13;;;;;;;14.50;8.70;;;3.00;99.90;;;;;;5222871;28;20461;-55
2023/03/03 10:07:56;;;;;;;17.37;9.50;;;3.20;99.90;;;;;;5206007;28;20969;-55
2023/03/03 10:10:39;;;;;;;20.23;11.50;;;3.30;99.90;;;;;;5207618;28;20429;-54
2023/03/03 10:13:36;;;;;;;19.17;9.80;;;3.40;99.90;;;;;;5209046;28;20994;-54
2023/03/03 10:16:45;;;;;;;17.63;11.40;;;3.50;99.90;;;;;;5226213;28;20422;-55
2023/03/03 10:19:57;;;;;;;21.63;12.07;;;3.50;99.90;;;;;;5225873;28;20917;-54
2023/03/03 10:22:42;;;;;;;16.43;9.63;;;3.40;99.90;;;;;;5213228;28;20945;-54
2023/03/03 10:25:55;;;;;;;15.17;10.43;;;3.60;99.90;;;;;;5207150;28;20444;-55
2023/03/03 10:28:52;;;;;;;23.80;12.03;;;3.70;99.90;;;;;;5203892;28;20441;-54
2023/03/03 10:31:42;;;;;;;19.37;11.30;;;3.80;99.90;;;;;;5214293;28;20438;-54
2023/03/03 10:34:30;;;;;;;16.23;9.43;;;3.60;99.90;;;;;;5227046;28;20502;-54
2023/03/03 10:37:44;;;;;;;23.00;11.47;;;3.50;99.90;;;;;;5221621;28;21198;-55
2023/03/03 10:40:31;;;;;;;27.30;14.40;;;3.60;99.90;;;;;;5232498;28;20808;-54
2023/03/03 10:43:20;;;;;;;25.63;14.63;;;3.40;99.90;;;;;;5229272;28;20861;-55
2023/03/03 10:46:13;;;;;;;27.07;15.90;;;3.50;99.90;;;;;;5221530;28;21823;-53
2023/03/03 10:49:08;;;;;;;29.23;15.00;;;3.20;99.90;;;;;;5224146;28;20801;-55
2023/03/03 10:52:00;;;;;;;18.67;11.67;;;3.30;99.90;;;;;;5208057;28;20525;-54
2023/03/03 10:55:03;;;;;;;23.13;11.97;;;3.20;99.90;;;;;;5223991;28;20866;-55
2023/03/03 10:57:51;;;;;;;18.77;10.07;;;3.20;99.90;;;;;;5225437;28;20521;-53
2023/03/03 11:00:40;;;;;;;20.80;9.50;;;3.20;99.90;;;;;;5221463;28;20472;-53
2023/03/03 11:03:14;;;;;;;23.70;10.50;;;3.40;99.90;;;;;;5224071;28;20532;-55
2023/03/03 11:05:57;;;;;;;17.30;10.17;;;3.30;99.90;;;;;;5209120;28;20822;-55
2023/03/03 11:08:33;;;;;;;16.57;10.27;;;3.40;99.90;;;;;;5225368;28;20788;-54
2023/03/03 11:11:27;;;;;;;17.47;10.20;;;3.70;99.90;;;;;;5224258;28;20814;-54
2023/03/03 11:14:46;;;;;;;20.00;10.20;;;3.80;99.90;;;;;;5205056;28;20974;-54
2023/03/03 11:17:31;;;;;;;21.17;11.03;;;3.80;99.90;;;;;;5223162;28;20449;-54
2023/03/03 11:20:27;;;;;;;17.70;11.47;;;3.80;99.90;;;;;;5225741;28;20821;-54
2023/03/03 11:23:22;;;;;;;19.13;11.37;;;3.90;99.90;;;;;;5225213;28;21051;-54
2023/03/03 11:26:18;;;;;;;20.97;11.20;;;3.90;99.90;;;;;;5208217;28;20477;-54
2023/03/03 11:28:55;;;;;;;22.90;11.90;;;3.60;99.90;;;;;;5226625;28;20439;-54
2023/03/03 11:31:37;;;;;;;19.30;10.70;;;3.70;99.90;;;;;;5209089;28;20452;-53
2023/03/03 11:34:40;;;;;;;25.67;11.37;;;3.90;99.90;;;;;;5207484;28;20785;-55
2023/03/03 11:37:35;;;;;;;18.37;10.93;;;3.80;99.90;;;;;;5206431;28;20790;-54
2023/03/03 11:40:53;;;;;;;22.93;11.90;;;4.00;99.90;;;;;;5209779;28;20479;-55
2023/03/03 11:43:38;;;;;;;24.57;12.93;;;4.10;99.90;;;;;;5223834;28;20462;-55
2023/03/03 11:46:22;;;;;;;29.00;12.27;;;4.10;99.90;;;;;;5208880;28;20492;-55
2023/03/03 11:49:02;;;;;;;28.13;12.67;;;4.10;99.90;;;;;;5226266;28;20459;-53
2023/03/03 11:52:00;;;;;;;26.13;12.80;;;4.40;99.90;;;;;;5221290;28;20953;-54
2023/03/03 11:55:13;;;;;;;22.20;11.60;;;4.30;99.90;;;;;;5209447;28;20537;-54
2023/03/03 11:58:02;;;;;;;;;;;;;;;;;;;;;
2023/03/03 12:00:51;;;;;;;29.03;12.10;;;4.40;99.90;;;;;;5222078;28;20520;-54
2023/03/03 12:03:47;;;;;;;23.33;13.57;;;4.40;99.90;;;;;;5206883;28;20461;-53
2023/03/03 12:07:09;;;;;;;23.83;12.03;;;4.20;99.90;;;;;;5201934;28;21035;-53
2023/03/03 12:09:18;;;;;;;28.53;12.70;;;4.40;99.90;;;;;;5217067;28;20423;-52
2023/03/03 12:12:12;;;;;;;23.43;12.33;;;4.50;99.90;;;;;;5225645;28;20429;-53
2023/03/03 12:14:55;;;;;;;20.03;12.07;;;4.40;99.90;;;;;;5195623;28;20458;-55
2023/03/03 12:18:00;;;;;;;33.50;12.50;;;4.50;99.90;;;;;;5222572;28;21251;-55
2023/03/03 12:20:49;;;;;;;38.40;16.90;;;4.50;99.90;;;;;;5208181;28;20787;-54
2023/03/03 12:23:36;;;;;;;29.63;16.50;;;4.20;99.90;;;;;;5203592;28;20506;-55
2023/03/03 12:26:11;;;;;;;27.70;15.03;;;4.10;99.90;;;;;;5200407;28;20551;-55
2023/03/03 12:29:16;;;;;;;26.37;14.37;;;4.10;99.90;;;;;;5221959;28;20443;-55
2023/03/03 12:32:28;;;;;;;25.93;13.73;;;4.30;99.90;;;;;;5195151;28;20804;-55
2023/03/03 12:35:02;;;;;;;24.87;12.93;;;4.50;99.90;;;;;;5220054;28;20442;-55
2023/03/03 12:38:17;;;;;;;22.87;12.70;;;4.50;99.90;;;;;;5221901;28;20710;-54
2023/03/03 12:41:03;;;;;;;30.60;15.20;;;4.50;99.90;;;;;;5186096;28;20440;-55
2023/03/03 12:44:08;;;;;;;27.60;13.63;;;4.60;99.90;;;;;;5203786;28;20444;-56
2023/03/03 12:46:52;;;;;;;33.67;16.50;;;4.60;99.90;;;;;;5208061;28;21284;-54
2023/03/03 12:49:48;;;;;;;27.20;16.07;;;4.50;99.90;;;;;;5211227;28;20496;-55
2023/03/03 12:52:38;;;;;;;24.33;13.67;;;4.40;99.90;;;;;;5211180;28;20434;-55
2023/03/03 12:55:27;;;;;;;31.07;14.50;;;4.40;99.90;;;;;;5228088;28;20438;-55
2023/03/03 12:58:11;;;;;;;32.47;14.20;;;4.30;99.90;;;;;;5221555;28;20444;-55
2023/03/03 13:00:59;;;;;;;24.93;11.87;;;4.20;99.90;;;;;;5208142;28;20534;-54
2023/03/03 13:04:07;;;;;;;25.63;12.50;;;4.20;99.90;;;;;;5210669;28;20876;-54
2023/03/03 13:06:52;;;;;;;28.90;13.43;;;4.30;99.90;;;;;;5213806;28;20462;-54
2023/03/03 13:09:48;;;;;;;25.70;11.87;;;4.50;99.90;;;;;;5209414;28;20768;-55
2023/03/03 13:12:44;;;;;;;17.83;11.80;;;4.40;99.90;;;;;;5226015;28;20435;-55
2023/03/03 13:15:46;;;;;;;25.93;13.33;;;4.60;99.90;;;;;;5227285;28;20427;-56
2023/03/03 13:19:13;;;;;;;21.07;12.40;;;4.80;99.90;;;;;;5224025;28;20932;-54
2023/03/03 13:22:07;;;;;;;24.23;12.50;;;4.60;99.90;;;;;;5210526;28;20966;-54
2023/03/03 13:24:56;;;;;;;26.00;13.23;;;4.70;99.90;;;;;;5224696;28;20465;-55
2023/03/03 13:27:40;;;;;;;18.67;11.83;;;4.70;99.90;;;;;;5207836;28;20560;-55
2023/03/03 13:30:32;;;;;;;22.70;12.20;;;4.60;99.90;;;;;;5211248;28;20496;-55
2023/03/03 13:33:30;;;;;;;25.07;13.17;;;4.70;99.90;;;;;;5193078;28;20455;-55
2023/03/03 13:36:10;;;;;;;25.73;13.27;;;4.60;99.90;;;;;;5225197;28;20431;-56
2023/03/03 13:38:54;;;;;;;26.40;15.03;;;4.60;99.90;;;;;;5204921;28;20950;-55
2023/03/03 13:41:39;;;;;;;27.40;14.20;;;4.70;99.90;;;;;;5226930;28;20452;-54
2023/03/03 13:44:19;;;;;;;32.13;14.70;;;4.70;99.90;;;;;;5194532;22;20565;-52
2023/03/03 13:47:14;;;;;;;23.37;14.40;;;4.70;99.90;;;;;;5169842;28;20512;-51
2023/03/03 13:50:23;;;;;;;22.63;12.30;;;4.40;99.90;;;;;;5178069;28;20446;-48
2023/03/03 13:53:16;;;;;;;23.13;11.87;;;4.40;99.90;;;;;;5184425;28;20449;-52
2023/03/03 13:56:10;;;;;;;25.27;13.20;;;4.40;99.90;;;;;;5164381;28;20447;-53
2023/03/03 13:58:51;;;;;;;27.77;12.73;;;4.70;99.90;;;;;;5162548;28;20431;-53
2023/03/03 14:01:28;;;;;;;29.10;13.70;;;4.90;99.90;;;;;;5172682;28;20452;-52
2023/03/03 14:04:14;;;;;;;24.40;14.10;;;4.90;99.90;;;;;;5157808;28;20592;-53
2023/03/03 14:06:54;;;;;;;24.93;13.43;;;4.90;99.90;;;;;;5168828;28;20520;-52